createdAt,value
2022-08-07T00:00:22.889Z,96462.88
2022-08-07T00:02:36.625Z,96455.75
2022-08-07T00:04:45.370Z,96453.25
2022-08-07T00:06:51.770Z,96451.22
2022-08-07T00:08:55.464Z,96450.41
2022-08-07T00:10:58.506Z,96455.31
2022-08-07T00:13:17.519Z,96449.41
2022-08-07T00:15:38.360Z,96455.34
2022-08-07T00:17:50.960Z,96447.78
2022-08-07T00:20:02.497Z,96459.84
2022-08-07T00:22:06.770Z,96221.72
2022-08-07T00:24:10.317Z,96180.41
2022-08-07T00:26:31.234Z,96452.66
2022-08-07T00:28:41.822Z,96453.75
2022-08-07T00:30:50.006Z,96457.63
2022-08-07T00:32:53.231Z,96455.44
2022-08-07T00:34:56.662Z,96446.34
2022-08-07T00:36:59.620Z,96453.56
2022-08-07T00:39:02.499Z,96454.25
2022-08-07T00:41:10.009Z,96456.97
2022-08-07T00:43:59.298Z,96412.97
2022-08-07T00:45:42.109Z,96454.97
2022-08-07T00:48:08.866Z,96456.75
2022-08-07T00:50:20.670Z,96455.03
2022-08-07T00:52:36.710Z,96268.13
2022-08-07T00:54:41.353Z,96455.75
2022-08-07T00:56:44.663Z,96423.25
2022-08-07T00:58:52.699Z,96459.84
2022-08-07T01:00:55.564Z,96363.75
2022-08-07T01:03:00.413Z,96445.81
2022-08-07T01:05:06.751Z,96446.16
2022-08-07T01:07:23.652Z,96443.63
2022-08-07T01:10:03.999Z,96432.72
2022-08-07T01:12:23.798Z,96430.44
2022-08-07T01:14:21.102Z,96403.47
2022-08-07T01:16:32.514Z,96431.25
2022-08-07T01:18:37.993Z,96212.81
2022-08-07T01:20:59.500Z,96432.84
2022-08-07T01:23:12.338Z,96429.53
2022-08-07T01:25:54.379Z,96422.94
2022-08-07T01:27:41.184Z,96428.06
2022-08-07T01:29:55.355Z,96425.44
2022-08-07T01:31:59.564Z,96419.03
2022-08-07T01:34:04.135Z,96424.16
2022-08-07T01:36:16.796Z,96416.97
2022-08-07T01:38:24.841Z,96367.41
2022-08-07T01:40:31.599Z,96421.88
2022-08-07T01:42:58.485Z,96400.63
2022-08-07T01:45:00.572Z,96415.19
2022-08-07T01:48:16.854Z,96421.75
2022-08-07T01:49:27.537Z,96239.44
2022-08-07T01:52:03.631Z,96420.97
2022-08-07T01:54:12.119Z,96303.19
2022-08-07T01:56:28.913Z,96420.56
2022-08-07T01:58:37.470Z,96417.03
2022-08-07T02:00:49.897Z,96408.69
2022-08-07T02:03:19.359Z,96419.16
2022-08-07T02:05:43.248Z,96412.06
2022-08-07T02:07:53.592Z,96412.41
2022-08-07T02:10:14.675Z,96385.69
2022-08-07T02:12:29.065Z,96409.59
2022-08-07T02:14:40.762Z,96405.59
2022-08-07T02:16:55.546Z,96409.63
2022-08-07T02:19:05.773Z,96411.34
2022-08-07T02:21:27.742Z,96407.91
2022-08-07T02:23:51.491Z,96286.81
2022-08-07T02:26:30.779Z,96402.75
2022-08-07T02:28:24.388Z,96403.09
2022-08-07T02:30:29.788Z,96392.25
2022-08-07T02:32:39.467Z,96339.81
2022-08-07T02:35:01.793Z,96393.81
2022-08-07T02:37:11.384Z,96190.91
2022-08-07T02:39:43.870Z,96395.91
2022-08-07T02:41:50.565Z,96386.88
2022-08-07T02:44:00.737Z,96394.91
2022-08-07T02:46:05.590Z,96390.44
2022-08-07T02:48:15.504Z,96390.78
2022-08-07T02:50:20.820Z,96390.28
2022-08-07T02:52:31.971Z,96396.09
2022-08-07T02:54:40.978Z,96400.06
2022-08-07T02:56:48.438Z,96415.88
2022-08-07T02:58:55.268Z,96315.06
2022-08-07T03:01:00.955Z,96406.19
2022-08-07T03:03:07.735Z,96394.63
2022-08-07T03:05:20.554Z,96395.63
2022-08-07T03:07:58.868Z,96390.41
2022-08-07T03:09:52.140Z,96237.78
2022-08-07T03:11:57.976Z,96393.97
2022-08-07T03:14:08.668Z,96403.00
2022-08-07T03:16:12.521Z,96397.84
2022-08-07T03:18:17.669Z,96399.94
2022-08-07T03:20:25.164Z,96398.53
2022-08-07T03:22:30.719Z,96393.69
2022-08-07T03:24:36.549Z,96341.78
2022-08-07T03:26:42.903Z,96388.81
2022-08-07T03:28:58.511Z,96396.91
2022-08-07T03:31:24.703Z,96393.91
2022-08-07T03:33:45.491Z,96395.09
2022-08-07T03:35:52.821Z,96401.09
2022-08-07T03:38:04.644Z,96383.63
2022-08-07T03:40:15.767Z,96270.03
2022-08-07T03:42:20.958Z,96390.63
2022-08-07T03:44:31.859Z,96279.69
2022-08-07T03:47:14.023Z,96391.84
2022-08-07T03:49:04.797Z,96390.22
2022-08-07T03:51:14.759Z,96394.53
2022-08-07T03:53:18.062Z,96402.28
2022-08-07T03:55:23.166Z,96395.31
2022-08-07T03:58:35.501Z,96396.81
2022-08-07T04:00:02.700Z,96401.09
2022-08-07T04:02:20.214Z,96409.34
2022-08-07T04:04:24.329Z,96295.31
2022-08-07T04:06:37.860Z,96405.78
2022-08-07T04:08:49.154Z,96373.03
2022-08-07T04:11:14.897Z,96406.94
2022-08-07T04:13:20.501Z,96351.75
2022-08-07T04:15:32.013Z,96426.44
2022-08-07T04:18:57.613Z,96422.38
2022-08-07T04:19:58.944Z,96429.78
2022-08-07T04:22:07.774Z,96421.97
2022-08-07T04:24:30.683Z,96426.59
2022-08-07T04:26:40.520Z,96422.09
2022-08-07T04:28:47.081Z,96368.66
2022-08-07T04:30:57.409Z,96427.63
2022-08-07T04:33:10.045Z,96419.94
2022-08-07T04:35:19.768Z,96261.19
2022-08-07T04:37:26.287Z,96425.88
2022-08-07T04:39:35.649Z,96421.84
2022-08-07T04:41:42.147Z,96427.72
2022-08-07T04:44:11.889Z,96422.63
2022-08-07T04:46:34.326Z,96478.66
2022-08-07T04:48:51.200Z,96069.78
2022-08-07T04:51:05.603Z,96415.59
2022-08-07T04:53:27.817Z,96432.50
2022-08-07T04:58:11.441Z,96387.72
2022-08-07T04:58:29.365Z,96310.31
2022-08-07T05:00:51.460Z,96419.16
2022-08-07T05:03:02.872Z,96429.84
2022-08-07T05:05:53.231Z,96426.28
2022-08-07T05:07:57.056Z,96428.50
2022-08-07T05:10:05.661Z,96127.22
2022-08-07T05:12:26.869Z,96427.13
2022-08-07T05:14:55.702Z,96309.03
2022-08-07T05:17:11.670Z,96437.19
2022-08-07T05:19:25.699Z,96384.84
2022-08-07T05:21:59.979Z,96433.38
2022-08-07T05:24:05.324Z,96429.06
2022-08-07T05:26:23.556Z,96437.66
2022-08-07T05:28:33.363Z,96436.66
2022-08-07T05:30:38.140Z,96165.00
2022-08-07T05:32:47.045Z,96443.97
2022-08-07T05:34:52.798Z,96449.38
2022-08-07T05:36:57.928Z,96450.13
2022-08-07T05:40:06.394Z,96454.25
2022-08-07T05:42:01.690Z,95717.75
2022-08-07T05:44:12.489Z,96312.81
2022-08-07T05:46:21.931Z,96460.44
2022-08-07T05:48:30.965Z,96466.16
2022-08-07T05:50:43.050Z,96461.25
2022-08-07T05:52:47.759Z,96467.72
2022-08-07T05:54:55.833Z,96455.78
2022-08-07T05:57:02.625Z,96459.56
2022-08-07T05:59:14.464Z,96467.75
2022-08-07T06:01:21.096Z,96460.44
2022-08-07T06:03:26.591Z,96462.31
2022-08-07T06:05:56.641Z,96468.22
2022-08-07T06:08:13.237Z,96475.84
2022-08-07T06:10:26.547Z,96459.34
2022-08-07T06:12:33.224Z,96283.06
2022-08-07T06:14:37.311Z,96461.44
2022-08-07T06:16:41.720Z,96464.38
2022-08-07T06:18:51.537Z,96469.25
2022-08-07T06:22:14.842Z,96463.25
2022-08-07T06:24:36.776Z,96469.16
2022-08-07T06:25:54.313Z,96471.84
2022-08-07T06:28:05.681Z,96483.66
2022-08-07T06:30:36.021Z,96489.34
2022-08-07T06:32:33.340Z,96468.22
2022-08-07T06:34:40.582Z,96348.88
2022-08-07T06:36:52.185Z,96410.03
2022-08-07T06:38:59.662Z,96478.03
2022-08-07T06:42:01.166Z,96348.31
2022-08-07T06:44:01.754Z,96478.22
2022-08-07T06:46:15.258Z,96473.72
2022-08-07T06:48:34.236Z,96450.38
2022-08-07T06:50:43.251Z,96345.75
2022-08-07T06:52:56.352Z,96468.44
2022-08-07T06:55:33.949Z,96472.31
2022-08-07T06:57:43.566Z,96474.25
2022-08-07T07:00:14.419Z,96482.66
2022-08-07T07:02:48.567Z,96477.81
2022-08-07T07:04:54.720Z,96476.97
2022-08-07T07:07:01.028Z,96480.88
2022-08-07T07:09:36.280Z,96472.09
2022-08-07T07:12:07.846Z,96480.41
2022-08-07T07:14:05.138Z,96193.09
2022-08-07T07:16:19.614Z,96473.44
2022-08-07T07:18:48.378Z,96475.69
2022-08-07T07:20:54.562Z,96392.97
2022-08-07T07:24:09.952Z,96483.66
2022-08-07T07:26:34.980Z,96464.25
2022-08-07T07:27:56.280Z,96461.00
2022-08-07T07:30:11.959Z,96467.34
2022-08-07T07:32:16.403Z,96456.91
2022-08-07T07:34:31.009Z,96371.88
2022-08-07T07:36:35.658Z,96465.19
2022-08-07T07:38:46.194Z,96557.75
2022-08-07T07:40:54.643Z,96262.88
2022-08-07T07:43:11.714Z,96230.75
2022-08-07T07:45:22.801Z,96404.22
2022-08-07T07:47:52.524Z,96397.56
2022-08-07T07:50:33.519Z,96374.22
2022-08-07T07:52:23.570Z,96451.41
2022-08-07T07:54:28.397Z,96452.03
2022-08-07T07:56:33.813Z,96391.72
2022-08-07T07:58:40.971Z,96235.03
2022-08-07T08:00:48.712Z,96444.06
2022-08-07T08:03:04.841Z,96451.94
2022-08-07T08:05:14.461Z,96233.38
2022-08-07T08:07:20.181Z,95989.94
2022-08-07T08:09:29.180Z,96349.06
2022-08-07T08:11:59.794Z,96443.88
2022-08-07T08:13:58.733Z,96442.63
2022-08-07T08:16:03.099Z,96444.19
2022-08-07T08:18:17.531Z,96444.97
2022-08-07T08:20:27.389Z,96363.25
2022-08-07T08:22:56.510Z,96435.91
2022-08-07T08:25:27.117Z,96444.47
2022-08-07T08:27:44.026Z,96443.19
2022-08-07T08:30:05.043Z,96442.31
2022-08-07T08:32:18.039Z,96437.63
2022-08-07T08:34:29.009Z,96441.94
2022-08-07T08:36:35.358Z,96447.91
2022-08-07T08:38:41.405Z,96444.06
2022-08-07T08:40:50.198Z,96432.88
2022-08-07T08:43:03.169Z,96433.41
2022-08-07T08:45:13.940Z,96439.97
2022-08-07T08:47:26.871Z,96383.56
2022-08-07T08:50:02.152Z,96411.41
2022-08-07T08:52:14.081Z,96432.63
2022-08-07T08:54:25.518Z,96386.41
2022-08-07T08:56:34.351Z,96433.13
2022-08-07T08:58:47.595Z,96431.47
2022-08-07T09:01:00.891Z,96436.50
2022-08-07T09:03:14.109Z,96433.16
2022-08-07T09:05:36.612Z,96429.09
2022-08-07T09:07:57.567Z,96426.94
2022-08-07T09:10:08.904Z,96430.28
2022-08-07T09:12:30.779Z,96425.75
2022-08-07T09:14:41.870Z,96434.00
2022-08-07T09:17:03.439Z,96424.66
2022-08-07T09:19:51.964Z,96430.72
2022-08-07T09:22:10.138Z,96427.56
2022-08-07T09:24:59.037Z,96427.25
2022-08-07T09:26:59.225Z,96404.78
2022-08-07T09:30:05.237Z,96423.47
2022-08-07T09:31:52.411Z,96428.94
2022-08-07T09:34:09.483Z,96415.25
2022-08-07T09:36:19.623Z,96423.88
2022-08-07T09:38:40.024Z,96426.91
2022-08-07T09:40:55.243Z,96426.56
2022-08-07T09:43:08.444Z,96337.22
2022-08-07T09:47:23.555Z,96415.53
2022-08-07T09:48:01.790Z,96367.22
2022-08-07T09:50:19.490Z,96427.44
2022-08-07T09:52:34.122Z,96418.19
2022-08-07T09:54:42.293Z,96406.38
2022-08-07T09:57:19.796Z,96416.28
2022-08-07T09:59:46.357Z,96410.53
2022-08-07T10:02:37.407Z,96421.09
2022-08-07T10:05:12.464Z,96417.03
2022-08-07T10:07:53.040Z,96409.84
2022-08-07T10:10:21.357Z,96404.00
2022-08-07T10:12:53.295Z,96410.97
2022-08-07T10:15:26.111Z,96400.59
2022-08-07T10:18:00.803Z,96408.06
2022-08-07T10:20:21.971Z,96406.09
2022-08-07T10:22:47.919Z,96397.34
2022-08-07T10:25:22.788Z,96355.63
2022-08-07T10:27:45.977Z,96391.38
2022-08-07T10:30:12.458Z,96387.97
2022-08-07T10:32:51.276Z,96390.25
2022-08-07T10:35:09.077Z,96381.31
2022-08-07T10:37:59.979Z,96381.53
2022-08-07T10:40:09.003Z,96386.34
2022-08-07T10:42:31.329Z,96382.56
2022-08-07T10:44:50.189Z,96281.19
2022-08-07T10:47:01.005Z,96382.91
2022-08-07T10:49:13.666Z,96378.91
2022-08-07T10:51:57.735Z,96375.59
2022-08-07T10:54:00.247Z,96317.13
2022-08-07T10:56:11.134Z,96321.50
2022-08-07T10:58:47.814Z,96060.63
2022-08-07T11:01:16.117Z,96355.75
2022-08-07T11:03:37.657Z,96368.03
2022-08-07T11:06:00.146Z,96313.59
2022-08-07T11:08:16.402Z,96352.03
2022-08-07T11:10:27.572Z,96340.78
2022-08-07T11:12:37.972Z,96344.44
2022-08-07T11:14:59.783Z,96351.38
2022-08-07T11:17:09.021Z,96352.72
2022-08-07T11:19:21.320Z,96346.66
2022-08-07T11:21:41.036Z,96342.19
2022-08-07T11:23:50.845Z,96219.28
2022-08-07T11:26:06.424Z,96193.00
2022-08-07T11:28:17.521Z,96339.28
2022-08-07T11:30:41.740Z,96329.59
2022-08-07T11:32:57.555Z,96350.09
2022-08-07T11:35:06.207Z,96336.56
2022-08-07T11:37:18.918Z,96331.31
2022-08-07T11:40:01.115Z,96301.09
2022-08-07T11:42:18.603Z,96330.16
2022-08-07T11:44:34.439Z,96331.25
2022-08-07T11:46:59.919Z,96331.53
2022-08-07T11:49:50.529Z,96325.03
2022-08-07T11:51:58.792Z,96317.91
2022-08-07T11:54:25.600Z,96325.97
2022-08-07T11:56:53.163Z,96319.47
2022-08-07T12:00:08.196Z,96315.84
2022-08-07T12:01:59.963Z,96173.94
2022-08-07T12:04:24.553Z,96315.69
2022-08-07T12:06:55.375Z,96249.72
2022-08-07T12:09:08.558Z,96276.81
2022-08-07T12:11:24.811Z,96312.78
2022-08-07T12:13:47.483Z,96312.47
2022-08-07T12:16:06.695Z,96306.38
2022-08-07T12:18:22.223Z,96307.03
2022-08-07T12:20:39.128Z,96299.09
2022-08-07T12:22:56.243Z,96264.00
2022-08-07T12:26:21.875Z,96300.47
2022-08-07T12:28:08.767Z,96304.81
2022-08-07T12:30:14.344Z,96291.81
2022-08-07T12:32:22.885Z,96285.94
2022-08-07T12:34:30.309Z,96294.66
2022-08-07T12:36:34.982Z,96289.28
2022-08-07T12:38:47.133Z,96299.56
2022-08-07T12:40:53.062Z,95949.19
2022-08-07T12:43:00.083Z,96278.97
2022-08-07T12:45:10.149Z,96242.78
2022-08-07T12:47:26.994Z,96285.16
2022-08-07T12:49:39.638Z,96287.03
2022-08-07T12:52:12.305Z,96292.94
2022-08-07T12:54:38.271Z,96285.31
2022-08-07T12:56:51.312Z,96249.16
2022-08-07T12:59:00.741Z,96294.66
2022-08-07T13:01:11.632Z,96257.13
2022-08-07T13:03:59.224Z,96289.25
2022-08-07T13:06:26.931Z,96283.81
2022-08-07T13:08:50.712Z,96281.81
2022-08-07T13:11:08.612Z,96276.63
2022-08-07T13:13:46.995Z,96276.97
2022-08-07T13:16:01.996Z,96269.66
2022-08-07T13:18:26.250Z,96269.34
2022-08-07T13:20:41.849Z,96259.00
2022-08-07T13:22:54.363Z,96274.50
2022-08-07T13:25:02.489Z,96271.91
2022-08-07T13:27:12.964Z,96262.47
2022-08-07T13:29:19.327Z,96258.75
2022-08-07T13:31:32.170Z,96257.53
2022-08-07T13:34:34.126Z,96254.34
2022-08-07T13:36:26.909Z,96254.19
2022-08-07T13:38:43.104Z,96249.31
2022-08-07T13:40:56.034Z,96247.09
2022-08-07T13:43:02.331Z,96255.94
2022-08-07T13:46:07.282Z,96256.28
2022-08-07T13:48:05.474Z,96247.81
2022-08-07T13:50:34.581Z,96247.91
2022-08-07T13:52:35.058Z,95852.13
2022-08-07T13:54:49.193Z,96242.44
2022-08-07T13:56:59.947Z,96166.63
2022-08-07T13:59:05.631Z,96243.88
2022-08-07T14:01:20.459Z,96237.72
2022-08-07T14:03:29.083Z,96237.44
2022-08-07T14:05:38.113Z,96196.78
2022-08-07T14:07:54.309Z,96225.22
2022-08-07T14:10:20.344Z,96218.06
2022-08-07T14:12:31.810Z,96230.03
2022-08-07T14:14:43.239Z,96228.03
2022-08-07T14:16:50.051Z,96226.06
2022-08-07T14:18:57.161Z,96220.47
2022-08-07T14:21:20.838Z,96204.53
2022-08-07T14:24:00.317Z,96225.19
2022-08-07T14:26:04.869Z,96214.84
2022-08-07T14:28:20.389Z,96213.25
2022-08-07T14:30:40.479Z,96210.91
2022-08-07T14:32:46.252Z,96203.72
2022-08-07T14:34:49.578Z,96204.88
2022-08-07T14:36:56.619Z,96206.09
2022-08-07T14:39:03.684Z,96212.34
2022-08-07T14:41:15.011Z,96204.00
2022-08-07T14:43:57.491Z,96198.91
2022-08-07T14:45:50.244Z,96151.09
2022-08-07T14:47:58.935Z,96201.66
2022-08-07T14:50:11.161Z,96159.13
2022-08-07T14:52:16.833Z,96199.69
2022-08-07T14:54:32.979Z,96203.22
2022-08-07T14:56:42.269Z,96201.69
2022-08-07T15:01:21.643Z,96199.34
2022-08-07T15:05:54.790Z,96197.38
2022-08-07T15:08:12.533Z,96159.13
2022-08-07T15:12:54.965Z,96186.19
2022-08-07T15:15:07.765Z,96190.56
2022-08-07T15:17:55.445Z,96183.75
2022-08-07T15:22:29.495Z,96186.19
2022-08-07T15:27:11.219Z,96156.66
2022-08-07T15:34:12.431Z,96159.28
2022-08-07T15:37:02.685Z,96170.28
2022-08-07T15:38:59.311Z,96168.94
2022-08-07T15:41:23.883Z,96119.69
2022-08-07T15:43:55.828Z,96166.53
2022-08-07T15:46:34.331Z,96173.66
2022-08-07T15:48:32.534Z,96166.88
2022-08-07T15:53:09.078Z,96162.75
2022-08-07T15:55:19.033Z,96157.72
2022-08-07T15:57:39.267Z,96127.25
2022-08-07T15:59:52.682Z,96161.97
2022-08-07T16:02:02.925Z,96160.47
2022-08-07T16:04:14.716Z,96132.84
2022-08-07T16:06:28.553Z,96156.84
2022-08-07T16:08:38.237Z,96152.00
2022-08-07T16:10:47.321Z,96126.84
2022-08-07T16:13:17.643Z,96151.44
2022-08-07T16:15:57.575Z,96146.13
2022-08-07T16:18:12.236Z,96100.59
2022-08-07T16:20:56.781Z,96139.53
2022-08-07T16:23:54.297Z,96145.78
2022-08-07T16:26:08.151Z,96137.38
2022-08-07T16:30:05.748Z,96135.75
2022-08-07T16:30:56.960Z,96069.75
2022-08-07T16:34:01.652Z,95978.78
2022-08-07T16:35:51.499Z,96149.41
2022-08-07T16:38:18.545Z,96134.97
2022-08-07T16:41:04.274Z,96139.31
2022-08-07T16:43:21.727Z,96137.91
2022-08-07T16:46:34.588Z,96142.56
2022-08-07T16:48:28.733Z,96143.66
2022-08-07T16:51:13.550Z,96135.91
2022-08-07T16:54:02.226Z,96135.97
2022-08-07T16:56:11.478Z,96134.38
2022-08-07T16:58:22.959Z,96131.09
2022-08-07T17:00:32.260Z,96142.09
2022-08-07T17:03:04.783Z,96138.50
2022-08-07T17:06:29.001Z,96142.16
2022-08-07T17:07:57.832Z,96139.28
2022-08-07T17:10:09.326Z,96141.38
2022-08-07T17:12:44.364Z,96103.63
2022-08-07T17:14:57.292Z,96141.19
2022-08-07T17:17:06.036Z,96145.03
2022-08-07T17:19:18.786Z,96096.16
2022-08-07T17:21:50.669Z,96147.88
2022-08-07T17:24:00.632Z,95890.72
2022-08-07T17:26:23.184Z,96157.97
2022-08-07T17:28:35.453Z,96130.84
2022-08-07T17:30:58.540Z,96164.31
2022-08-07T17:34:09.337Z,96028.91
2022-08-07T17:35:54.601Z,96152.81
2022-08-07T17:38:32.229Z,96157.78
2022-08-07T17:40:39.689Z,96155.81
2022-08-07T17:42:59.155Z,96160.56
2022-08-07T17:45:14.762Z,96166.22
2022-08-07T17:47:42.098Z,96164.84
2022-08-07T17:49:55.423Z,96153.88
2022-08-07T17:52:12.890Z,96055.78
2022-08-07T17:54:29.615Z,96158.78
2022-08-07T17:56:52.575Z,96161.44
2022-08-07T17:59:09.885Z,96162.72
2022-08-07T18:01:21.452Z,96159.84
2022-08-07T18:04:04.141Z,96163.94
2022-08-07T18:06:01.989Z,96158.63
2022-08-07T18:08:18.628Z,96097.97
2022-08-07T18:12:16.032Z,96166.03
2022-08-07T18:13:20.468Z,96124.88
2022-08-07T18:15:32.599Z,96042.91
2022-08-07T18:18:45.093Z,96173.88
2022-08-07T18:21:10.084Z,96173.06
2022-08-07T18:22:34.162Z,96177.13
2022-08-07T18:24:43.056Z,96183.28
2022-08-07T18:27:09.799Z,96184.75
2022-08-07T18:30:07.920Z,96191.91
2022-08-07T18:32:00.457Z,96189.41
2022-08-07T18:34:37.917Z,96041.09
2022-08-07T18:36:59.831Z,96191.84
2022-08-07T18:40:05.476Z,96172.78
2022-08-07T18:41:58.692Z,96195.41
2022-08-07T18:44:16.564Z,96189.72
2022-08-07T18:46:26.027Z,96222.69
2022-08-07T18:50:31.268Z,96174.16
2022-08-07T18:52:34.906Z,96225.69
2022-08-07T18:54:05.022Z,96231.09
2022-08-07T18:56:37.661Z,96151.31
2022-08-07T18:58:55.358Z,96203.94
2022-08-07T19:02:06.843Z,96228.97
2022-08-07T19:03:45.646Z,96235.19
2022-08-07T19:06:03.371Z,96233.50
2022-08-07T19:08:11.536Z,96157.59
2022-08-07T19:10:21.951Z,96236.75
2022-08-07T19:12:34.981Z,96217.97
2022-08-07T19:14:51.152Z,96250.22
2022-08-07T19:17:09.377Z,96251.47
2022-08-07T19:19:27.967Z,96252.44
2022-08-07T19:21:45.163Z,96257.34
2022-08-07T19:24:02.305Z,96202.50
2022-08-07T19:26:23.358Z,96201.66
2022-08-07T19:30:57.698Z,96145.88
2022-08-07T19:31:39.545Z,96273.47
2022-08-07T19:33:44.389Z,96256.84
2022-08-07T19:36:01.051Z,96273.28
2022-08-07T19:38:16.780Z,96279.63
2022-08-07T19:40:31.060Z,96276.72
2022-08-07T19:42:42.848Z,96277.78
2022-08-07T19:44:47.512Z,96275.13
2022-08-07T19:46:58.016Z,96276.28
2022-08-07T19:49:06.288Z,96282.72
2022-08-07T19:51:20.193Z,96251.94
2022-08-07T19:54:34.051Z,96186.53
2022-08-07T19:55:57.283Z,96270.59
2022-08-07T19:58:13.669Z,96278.34
2022-08-07T20:00:28.902Z,96282.44
2022-08-07T20:02:38.832Z,96279.00
2022-08-07T20:04:46.300Z,96250.03
2022-08-07T20:06:54.924Z,96269.50
2022-08-07T20:09:01.756Z,96279.06
2022-08-07T20:11:12.074Z,96288.97
2022-08-07T20:13:23.511Z,96273.84
2022-08-07T20:15:37.214Z,96269.69
2022-08-07T20:17:43.670Z,96280.59
2022-08-07T20:19:58.259Z,96274.97
2022-08-07T20:22:03.195Z,96279.34
2022-08-07T20:24:15.816Z,96274.69
2022-08-07T20:26:29.963Z,96170.88
2022-08-07T20:28:37.547Z,96276.41
2022-08-07T20:30:46.899Z,96239.47
2022-08-07T20:32:55.792Z,96268.16
2022-08-07T20:35:07.838Z,96267.56
2022-08-07T20:37:12.333Z,96269.63
2022-08-07T20:40:02.079Z,96272.16
2022-08-07T20:41:50.551Z,96273.06
2022-08-07T20:43:57.476Z,96267.63
2022-08-07T20:46:25.958Z,96137.25
2022-08-07T20:48:30.506Z,96251.75
2022-08-07T20:50:35.323Z,96270.56
2022-08-07T20:52:51.160Z,96280.44
2022-08-07T20:54:56.910Z,96284.03
2022-08-07T20:57:05.834Z,96284.44
2022-08-07T21:00:04.440Z,96274.78
2022-08-07T21:01:45.666Z,96274.16
2022-08-07T21:04:22.216Z,96164.25
2022-08-07T21:06:28.252Z,96239.09
2022-08-07T21:08:40.893Z,96210.94
2022-08-07T21:10:46.313Z,96275.41
2022-08-07T21:12:50.707Z,96217.44
2022-08-07T21:14:58.109Z,96271.22
2022-08-07T21:18:00.336Z,96278.06
2022-08-07T21:19:32.006Z,96265.81
2022-08-07T21:21:57.397Z,96268.22
2022-08-07T21:24:06.971Z,96224.72
2022-08-07T21:26:21.921Z,96279.38
2022-08-07T21:28:48.113Z,96282.13
2022-08-07T21:31:10.285Z,96279.44
2022-08-07T21:33:21.320Z,96285.53
2022-08-07T21:35:34.698Z,96142.94
2022-08-07T21:38:03.994Z,96253.66
2022-08-07T21:40:13.804Z,96265.72
2022-08-07T21:42:48.591Z,96279.41
2022-08-07T21:44:54.981Z,96195.31
2022-08-07T21:47:07.404Z,96297.75
2022-08-07T21:49:26.879Z,96288.22
2022-08-07T21:51:51.242Z,96283.09
2022-08-07T21:54:09.209Z,96240.66
2022-08-07T21:56:35.777Z,96166.75
2022-08-07T21:58:57.305Z,96284.69
2022-08-07T22:01:08.484Z,96269.13
2022-08-07T22:03:31.741Z,96287.69
2022-08-07T22:05:48.502Z,96175.66
2022-08-07T22:07:59.583Z,96051.09
2022-08-07T22:10:05.480Z,96287.72
2022-08-07T22:12:15.298Z,96183.09
2022-08-07T22:14:34.536Z,96278.72
2022-08-07T22:16:47.594Z,96257.72
2022-08-07T22:18:59.803Z,96279.03
2022-08-07T22:21:12.222Z,96279.72
2022-08-07T22:23:23.637Z,96249.78
2022-08-07T22:25:36.353Z,96281.22
2022-08-07T22:28:07.909Z,96310.28
2022-08-07T22:30:14.072Z,96275.91
2022-08-07T22:32:34.192Z,96282.06
2022-08-07T22:34:52.853Z,96143.09
2022-08-07T22:37:09.412Z,96289.84
2022-08-07T22:39:28.315Z,96280.03
2022-08-07T22:42:03.633Z,96282.69
2022-08-07T22:44:07.396Z,96278.00
2022-08-07T22:47:02.783Z,96242.09
2022-08-07T22:49:15.761Z,96269.84
2022-08-07T22:51:49.284Z,96274.09
2022-08-07T22:54:11.244Z,96275.47
2022-08-07T22:56:30.842Z,96277.09
2022-08-07T22:59:05.100Z,96279.88
2022-08-07T23:01:23.421Z,96262.44
2022-08-07T23:03:57.900Z,96170.97
2022-08-07T23:06:23.890Z,96282.25
2022-08-07T23:08:47.828Z,96282.50
2022-08-07T23:11:10.283Z,96280.28
2022-08-07T23:13:49.279Z,96284.66
2022-08-07T23:16:44.402Z,96260.53
2022-08-07T23:19:11.055Z,96283.03
2022-08-07T23:21:30.099Z,96245.19
2022-08-07T23:24:09.163Z,96280.34
2022-08-07T23:26:19.713Z,96272.59
2022-08-07T23:28:54.646Z,96283.00
2022-08-07T23:31:43.023Z,96256.28
2022-08-07T23:34:35.500Z,96274.47
2022-08-07T23:36:28.897Z,96252.69
2022-08-07T23:38:54.676Z,96204.78
2022-08-07T23:41:10.452Z,96279.44
2022-08-07T23:43:38.831Z,96270.94
2022-08-07T23:46:03.142Z,96281.47
2022-08-07T23:48:41.797Z,96269.09
2022-08-07T23:50:54.497Z,96263.66
2022-08-07T23:53:06.418Z,96268.72
2022-08-07T23:55:47.081Z,96242.78
2022-08-07T23:57:45.208Z,96241.25
